Terminal Aerodrome Forecast
Issued by NWS

Home | Current Version | Previous Version | Text Only | Print | Product List | Glossary On
Versions: 1 2 3 4 5 6 7 8 9 10 11 12 13 14 15 16 17 18 19 20 21 22 23 24
409
FTUS46 KMTR 231120
TAFMRY
TAF
KMRY 231120Z 2312/2412 26004KT 6SM BR OVC003
      TEMPO 2314/2317 3/4SM BR VV002
     FM231730 29005KT P6SM BKN006
     FM231900 29007KT P6SM SCT008
     FM232100 26010KT P6SM FEW010
     FM240300 29006KT P6SM OVC007
     FM240500 VRB03KT P6SM OVC003=

USA.gov is the U.S. government's official web portal to all federal, state and local government web resources and services.